createdAt,value
2018-07-30T00:00:52.976Z,47.08
2018-07-30T00:03:22.278Z,46.76
2018-07-30T00:05:51.552Z,47.28
2018-07-30T00:08:20.614Z,47.11
2018-07-30T00:10:50.275Z,46.80
2018-07-30T00:13:19.673Z,47.12
2018-07-30T00:15:49.668Z,47.42
2018-07-30T00:18:18.941Z,47.54
2018-07-30T00:20:48.505Z,47.88
2018-07-30T00:23:17.783Z,48.32
2018-07-30T00:25:47.079Z,48.64
2018-07-30T00:28:16.699Z,48.47
2018-07-30T00:30:46.024Z,48.66
2018-07-30T00:33:15.324Z,48.58
2018-07-30T00:35:44.602Z,49.18
2018-07-30T00:38:13.814Z,49.19
2018-07-30T00:40:43.087Z,49.10
2018-07-30T00:43:12.337Z,48.97
2018-07-30T00:45:41.937Z,49.01
2018-07-30T00:48:11.700Z,49.99
2018-07-30T00:50:41.182Z,49.46
2018-07-30T00:53:10.698Z,49.20
2018-07-30T00:55:40.241Z,50.24
2018-07-30T00:58:09.540Z,49.73
2018-07-30T01:00:39.307Z,50.05
2018-07-30T01:03:08.565Z,50.05
2018-07-30T01:05:37.872Z,50.13
2018-07-30T01:08:07.787Z,49.79
2018-07-30T01:10:37.351Z,49.21
2018-07-30T01:13:06.699Z,49.43
2018-07-30T01:15:36.328Z,49.08
2018-07-30T01:18:05.658Z,49.32
2018-07-30T01:20:35.325Z,49.35
2018-07-30T01:23:04.784Z,50.83
2018-07-30T01:25:34.108Z,51.14
2018-07-30T01:28:03.383Z,51.43
2018-07-30T01:30:32.614Z,51.11
2018-07-30T01:33:02.175Z,50.61
2018-07-30T01:35:31.613Z,50.41
2018-07-30T01:38:00.863Z,50.27
2018-07-30T01:40:30.258Z,49.99
2018-07-30T01:42:59.807Z,49.17
2018-07-30T01:45:29.104Z,48.72
2018-07-30T01:47:58.364Z,48.80
2018-07-30T01:50:27.684Z,49.34
2018-07-30T01:52:56.942Z,49.29
2018-07-30T01:55:26.677Z,50.18
2018-07-30T01:57:55.894Z,50.12
2018-07-30T02:00:25.463Z,50.61
2018-07-30T02:02:54.760Z,50.95
2018-07-30T02:05:24.334Z,51.25
2018-07-30T02:07:53.980Z,51.22
2018-07-30T02:10:23.330Z,50.05
2018-07-30T02:12:52.698Z,49.93
2018-07-30T02:15:22.401Z,49.90
2018-07-30T02:17:51.949Z,49.79
2018-07-30T02:20:21.271Z,49.75
2018-07-30T02:22:50.870Z,49.07
2018-07-30T02:25:21.005Z,49.19
2018-07-30T02:27:50.555Z,49.79
2018-07-30T02:30:19.837Z,50.14
2018-07-30T02:32:49.143Z,50.52
2018-07-30T02:35:18.481Z,50.79
2018-07-30T02:37:47.731Z,50.67
2018-07-30T02:40:17.475Z,51.15
2018-07-30T02:42:46.744Z,51.74
2018-07-30T02:45:16.018Z,52.51
2018-07-30T02:47:46.365Z,52.56
2018-07-30T02:50:15.598Z,52.68
2018-07-30T02:52:45.208Z,53.19
2018-07-30T02:55:14.834Z,53.54
2018-07-30T02:57:44.282Z,53.55
2018-07-30T03:00:13.484Z,54.39
2018-07-30T03:02:43.113Z,54.71
2018-07-30T03:05:12.926Z,54.60
2018-07-30T03:07:42.509Z,55.59
2018-07-30T03:10:12.077Z,55.42
2018-07-30T03:12:41.826Z,56.18
2018-07-30T03:15:11.062Z,56.36
2018-07-30T03:17:40.356Z,56.47
2018-07-30T03:20:09.656Z,56.40
2018-07-30T03:22:39.252Z,56.39
2018-07-30T03:25:08.999Z,57.03
2018-07-30T03:27:38.274Z,57.12
2018-07-30T03:30:09.830Z,56.73
2018-07-30T03:32:39.452Z,57.48
2018-07-30T03:35:09.729Z,57.27
2018-07-30T03:37:39.483Z,57.01
2018-07-30T03:40:08.869Z,57.72
2018-07-30T03:42:38.443Z,57.40
2018-07-30T03:45:09.164Z,58.06
2018-07-30T03:47:38.427Z,57.77
2018-07-30T03:50:08.028Z,57.94
2018-07-30T03:52:37.315Z,58.79
2018-07-30T03:55:07.804Z,59.02
2018-07-30T03:57:37.801Z,59.22
2018-07-30T04:00:09.831Z,59.29
2018-07-30T04:02:39.174Z,58.98
2018-07-30T04:05:08.763Z,59.69
2018-07-30T04:07:38.980Z,59.39
2018-07-30T04:10:09.911Z,58.75
2018-07-30T04:12:40.002Z,58.72
2018-07-30T04:15:10.025Z,58.47
2018-07-30T04:17:39.309Z,58.49
2018-07-30T04:20:08.968Z,58.60
2018-07-30T04:22:38.247Z,58.17
2018-07-30T04:25:08.085Z,58.09
2018-07-30T04:27:37.424Z,57.89
2018-07-30T04:30:06.715Z,57.47
2018-07-30T04:32:36.388Z,57.48
2018-07-30T04:35:05.726Z,57.33
2018-07-30T04:37:35.250Z,56.35
2018-07-30T04:40:04.636Z,56.22
2018-07-30T04:42:33.941Z,55.87
2018-07-30T04:45:03.237Z,55.93
2018-07-30T04:47:32.480Z,54.32
2018-07-30T04:50:02.100Z,54.60
2018-07-30T04:52:31.343Z,53.86
2018-07-30T04:55:00.996Z,53.13
2018-07-30T04:57:30.554Z,51.73
2018-07-30T04:59:59.819Z,51.02
2018-07-30T05:02:29.075Z,50.39
2018-07-30T05:04:58.666Z,50.13
2018-07-30T05:07:28.414Z,49.96
2018-07-30T05:09:57.703Z,49.21
2018-07-30T05:12:27.578Z,49.19
2018-07-30T05:14:57.452Z,49.18
2018-07-30T05:17:26.803Z,49.18
2018-07-30T05:19:56.742Z,48.72
2018-07-30T05:22:26.367Z,47.90
2018-07-30T05:24:55.601Z,47.95
2018-07-30T05:27:24.850Z,47.77
2018-07-30T05:29:54.136Z,47.85
2018-07-30T05:32:23.763Z,47.28
2018-07-30T05:34:54.013Z,47.11
2018-07-30T05:37:23.336Z,46.55
2018-07-30T05:39:52.799Z,46.00
2018-07-30T05:42:22.120Z,46.01
2018-07-30T05:44:51.357Z,45.38
2018-07-30T05:47:20.611Z,45.05
2018-07-30T05:49:49.880Z,44.61
2018-07-30T05:52:19.115Z,43.87
2018-07-30T05:54:48.333Z,43.23
2018-07-30T05:57:17.629Z,43.45
2018-07-30T05:59:47.361Z,42.22
2018-07-30T06:02:16.786Z,41.90
2018-07-30T06:04:46.116Z,41.11
2018-07-30T06:07:15.397Z,38.22
2018-07-30T06:09:45.353Z,32.36
2018-07-30T06:12:14.690Z,27.28
2018-07-30T06:14:44.308Z,25.23
2018-07-30T06:17:13.974Z,23.53
2018-07-30T06:19:43.977Z,23.43
2018-07-30T06:22:13.275Z,22.84
2018-07-30T06:24:42.579Z,22.49
2018-07-30T06:27:11.817Z,21.50
2018-07-30T06:29:41.132Z,21.29
2018-07-30T06:32:10.744Z,21.23
2018-07-30T06:34:39.955Z,21.44
2018-07-30T06:37:09.564Z,21.42
2018-07-30T06:39:38.562Z,22.18
2018-07-30T06:42:07.848Z,23.94
2018-07-30T06:44:37.112Z,29.20
2018-07-30T06:47:06.836Z,29.73
2018-07-30T06:49:36.043Z,31.65
2018-07-30T06:52:05.615Z,32.77
2018-07-30T06:54:35.242Z,32.75
2018-07-30T06:57:04.952Z,34.85
2018-07-30T06:59:34.184Z,34.23
2018-07-30T07:02:03.928Z,35.37
2018-07-30T07:04:33.392Z,36.32
2018-07-30T07:07:02.683Z,36.66
2018-07-30T07:09:32.216Z,36.82
2018-07-30T07:12:01.506Z,36.41
2018-07-30T07:14:31.082Z,36.97
2018-07-30T07:17:00.767Z,36.92
2018-07-30T07:19:30.427Z,36.62
2018-07-30T07:22:06.402Z,37.04
2018-07-30T07:24:35.700Z,37.04
2018-07-30T07:27:04.993Z,36.55
2018-07-30T07:29:36.580Z,36.33
2018-07-30T07:32:05.919Z,36.60
2018-07-30T07:34:35.288Z,36.17
2018-07-30T07:37:04.558Z,35.59
2018-07-30T07:39:33.802Z,36.35
2018-07-30T07:42:03.158Z,36.04
2018-07-30T07:44:32.460Z,35.09
2018-07-30T07:47:02.068Z,35.01
2018-07-30T07:49:31.327Z,35.93
2018-07-30T07:52:00.627Z,35.96
2018-07-30T07:54:30.161Z,35.13
2018-07-30T07:56:59.673Z,35.03
2018-07-30T07:59:28.951Z,35.35
2018-07-30T08:01:58.231Z,34.74
2018-07-30T08:04:27.551Z,35.50
2018-07-30T08:06:56.826Z,34.73
2018-07-30T08:09:26.175Z,33.95
2018-07-30T08:11:55.410Z,34.19
2018-07-30T08:14:25.161Z,33.70
2018-07-30T08:16:54.416Z,34.03
2018-07-30T08:19:23.716Z,34.31
2018-07-30T08:21:53.239Z,33.43
2018-07-30T08:24:22.477Z,33.31
2018-07-30T08:26:52.590Z,33.29
2018-07-30T08:29:22.195Z,33.02
2018-07-30T08:31:51.506Z,33.63
2018-07-30T08:34:20.788Z,33.80
2018-07-30T08:36:50.070Z,33.13
2018-07-30T08:39:19.690Z,33.41
2018-07-30T08:41:49.241Z,32.88
2018-07-30T08:44:18.579Z,32.73
2018-07-30T08:46:48.136Z,32.72
2018-07-30T08:49:17.743Z,32.84
2018-07-30T08:51:46.996Z,31.91
2018-07-30T08:54:17.631Z,31.98
2018-07-30T08:56:46.889Z,31.04
2018-07-30T08:59:16.141Z,31.07
2018-07-30T09:01:45.566Z,30.85
2018-07-30T09:04:14.963Z,30.77
2018-07-30T09:06:44.198Z,31.21
2018-07-30T09:09:13.539Z,28.95
2018-07-30T09:11:42.832Z,25.34
2018-07-30T09:14:12.364Z,23.48
2018-07-30T09:16:41.437Z,22.88
2018-07-30T09:19:16.008Z,22.57
2018-07-30T09:21:45.358Z,21.39
2018-07-30T09:24:14.650Z,21.22
2018-07-30T09:26:43.955Z,20.28
2018-07-30T09:29:13.231Z,19.17
2018-07-30T09:31:42.929Z,20.32
2018-07-30T09:34:12.142Z,20.68
2018-07-30T09:36:41.424Z,20.33
2018-07-30T09:39:11.983Z,20.45
2018-07-30T09:41:41.787Z,20.87
2018-07-30T09:44:11.056Z,19.11
2018-07-30T09:46:40.335Z,19.25
2018-07-30T09:49:09.961Z,20.96
2018-07-30T09:51:39.442Z,21.66
2018-07-30T09:54:09.031Z,20.57
2018-07-30T09:56:38.277Z,20.17
2018-07-30T09:59:07.810Z,20.44
2018-07-30T10:01:37.522Z,20.86
2018-07-30T10:04:06.844Z,21.55
2018-07-30T10:06:36.117Z,20.78
2018-07-30T10:09:09.816Z,20.33
2018-07-30T10:11:39.466Z,19.66
2018-07-30T10:14:09.601Z,20.17
2018-07-30T10:16:38.944Z,20.85
2018-07-30T10:19:08.189Z,20.67
2018-07-30T10:21:37.462Z,20.26
2018-07-30T10:24:07.138Z,20.97
2018-07-30T10:26:36.359Z,21.39
2018-07-30T10:29:05.611Z,21.70
2018-07-30T10:31:35.166Z,22.13
2018-07-30T10:34:05.638Z,23.95
2018-07-30T10:36:35.569Z,24.24
2018-07-30T10:39:07.104Z,25.27
2018-07-30T10:41:36.368Z,25.51
2018-07-30T10:44:06.072Z,25.60
2018-07-30T10:46:35.324Z,25.96
2018-07-30T10:49:04.682Z,25.71
2018-07-30T10:51:33.954Z,26.58
2018-07-30T10:54:03.245Z,26.14
2018-07-30T10:56:32.529Z,26.26
2018-07-30T10:59:01.816Z,26.33
2018-07-30T11:01:31.935Z,26.07
2018-07-30T11:04:01.245Z,26.33
2018-07-30T11:06:30.877Z,26.87
2018-07-30T11:09:00.189Z,27.02
2018-07-30T11:11:29.847Z,27.46
2018-07-30T11:13:59.498Z,26.62
2018-07-30T11:16:28.882Z,27.04
2018-07-30T11:18:58.137Z,26.22
2018-07-30T11:21:27.746Z,26.26
2018-07-30T11:23:57.019Z,25.60
2018-07-30T11:26:26.312Z,24.65
2018-07-30T11:28:55.569Z,24.16
2018-07-30T11:31:25.803Z,23.28
2018-07-30T11:33:55.187Z,23.47
2018-07-30T11:36:24.775Z,22.56
2018-07-30T11:38:54.779Z,23.11
2018-07-30T11:41:24.406Z,23.30
2018-07-30T11:43:54.334Z,23.30
2018-07-30T11:46:23.514Z,24.12
2018-07-30T11:48:52.923Z,25.42
2018-07-30T11:51:22.461Z,25.58
2018-07-30T11:53:51.723Z,26.15
2018-07-30T11:56:21.005Z,26.54
2018-07-30T11:58:50.308Z,26.32
2018-07-30T12:01:19.981Z,25.90
2018-07-30T12:03:49.263Z,25.26
2018-07-30T12:06:19.083Z,25.26
2018-07-30T12:08:48.719Z,25.29
2018-07-30T12:11:17.983Z,25.69
2018-07-30T12:13:47.273Z,25.29
2018-07-30T12:16:16.989Z,24.77
2018-07-30T12:18:46.722Z,24.51
2018-07-30T12:21:16.758Z,24.22
2018-07-30T12:23:46.003Z,24.36
2018-07-30T12:26:15.607Z,23.78
2018-07-30T12:28:44.899Z,23.32
2018-07-30T12:31:14.667Z,24.31
2018-07-30T12:33:44.147Z,24.51
2018-07-30T12:36:13.904Z,23.73
2018-07-30T12:38:43.224Z,23.39
2018-07-30T12:41:12.828Z,23.74
2018-07-30T12:43:42.130Z,23.15
2018-07-30T12:46:11.719Z,23.74
2018-07-30T12:48:41.496Z,22.93
2018-07-30T12:51:11.178Z,22.27
2018-07-30T12:53:41.208Z,22.81
2018-07-30T12:56:10.472Z,22.04
2018-07-30T12:58:39.713Z,21.76
2018-07-30T13:01:09.034Z,21.96
2018-07-30T13:03:38.299Z,22.85
2018-07-30T13:06:07.677Z,22.63
2018-07-30T13:08:37.016Z,23.27
2018-07-30T13:11:06.674Z,22.53
2018-07-30T13:13:36.584Z,22.17
2018-07-30T13:16:05.880Z,22.39
2018-07-30T13:18:35.528Z,21.61
2018-07-30T13:21:04.858Z,22.47
2018-07-30T13:23:34.404Z,21.93
2018-07-30T13:26:03.991Z,22.54
2018-07-30T13:28:33.228Z,21.83
2018-07-30T13:31:02.857Z,22.05
2018-07-30T13:33:32.260Z,22.13
2018-07-30T13:36:01.984Z,21.50
2018-07-30T13:38:31.348Z,21.34
2018-07-30T13:41:00.991Z,21.92
2018-07-30T13:43:30.563Z,21.79
2018-07-30T13:46:00.636Z,21.36
2018-07-30T13:48:30.428Z,21.34
2018-07-30T13:50:59.731Z,21.61
2018-07-30T13:53:29.000Z,21.30
2018-07-30T13:55:58.288Z,20.62
2018-07-30T13:58:27.552Z,21.12
2018-07-30T14:00:56.787Z,21.19
2018-07-30T14:03:26.052Z,20.71
2018-07-30T14:05:55.336Z,20.73
2018-07-30T14:08:24.835Z,20.65
2018-07-30T14:10:54.380Z,21.55
2018-07-30T14:13:26.806Z,21.77
2018-07-30T14:15:56.852Z,21.80
2018-07-30T14:18:26.220Z,21.72
2018-07-30T14:20:55.872Z,22.67
2018-07-30T14:23:25.462Z,22.69
2018-07-30T14:25:54.734Z,22.29
2018-07-30T14:28:24.420Z,22.22
2018-07-30T14:30:53.639Z,23.25
2018-07-30T14:33:23.329Z,22.41
2018-07-30T14:35:53.030Z,22.82
2018-07-30T14:38:22.596Z,22.41
2018-07-30T14:40:51.867Z,22.52
2018-07-30T14:43:21.145Z,23.32
2018-07-30T14:45:50.436Z,22.43
2018-07-30T14:48:19.992Z,22.26
2018-07-30T14:50:49.224Z,22.42
2018-07-30T14:53:18.499Z,22.70
2018-07-30T14:55:47.800Z,22.51
2018-07-30T14:58:17.050Z,22.12
2018-07-30T15:00:46.321Z,21.64
2018-07-30T15:03:16.003Z,21.35
2018-07-30T15:05:45.250Z,21.92
2018-07-30T15:08:14.477Z,22.59
2018-07-30T15:10:43.719Z,22.19
2018-07-30T15:13:13.021Z,22.71
2018-07-30T15:15:42.790Z,22.35
2018-07-30T15:18:12.465Z,21.55
2018-07-30T15:20:41.738Z,21.96
2018-07-30T15:23:11.552Z,22.58
2018-07-30T15:25:40.847Z,22.68
2018-07-30T15:28:10.067Z,22.30
2018-07-30T15:30:39.343Z,21.70
2018-07-30T15:33:09.071Z,22.23
2018-07-30T15:35:38.392Z,21.40
2018-07-30T15:38:08.274Z,22.52
2018-07-30T15:40:37.551Z,22.26
2018-07-30T15:43:06.828Z,22.54
2018-07-30T15:45:36.102Z,22.81
2018-07-30T15:48:05.343Z,22.10
2018-07-30T15:50:34.655Z,22.30
2018-07-30T15:53:03.916Z,22.46
2018-07-30T15:55:33.549Z,22.24
2018-07-30T15:58:03.143Z,22.41
2018-07-30T16:00:32.428Z,22.87
2018-07-30T16:03:01.737Z,22.12
2018-07-30T16:05:31.067Z,22.23
2018-07-30T16:08:00.136Z,22.48
2018-07-30T16:10:29.408Z,22.05
2018-07-30T16:12:58.699Z,22.23
2018-07-30T16:15:27.975Z,22.04
2018-07-30T16:17:57.366Z,22.52
2018-07-30T16:20:26.540Z,23.11
2018-07-30T16:22:56.291Z,23.25
2018-07-30T16:25:25.595Z,23.25
2018-07-30T16:27:54.846Z,22.12
2018-07-30T16:30:24.449Z,23.18
2018-07-30T16:32:54.292Z,22.37
2018-07-30T16:35:23.804Z,22.37
2018-07-30T16:37:53.088Z,22.48
2018-07-30T16:40:22.622Z,22.33
2018-07-30T16:42:53.396Z,22.88
2018-07-30T16:45:22.683Z,22.90
2018-07-30T16:47:52.759Z,24.12
2018-07-30T16:50:22.014Z,23.90
2018-07-30T16:52:51.342Z,23.29
2018-07-30T16:55:20.962Z,24.01
2018-07-30T16:57:50.249Z,23.63
2018-07-30T17:00:19.816Z,24.41
2018-07-30T17:02:49.233Z,23.72
2018-07-30T17:05:19.018Z,23.67
2018-07-30T17:07:48.991Z,24.22
2018-07-30T17:10:18.251Z,24.01
2018-07-30T17:12:47.928Z,24.54
2018-07-30T17:15:17.570Z,24.48
2018-07-30T17:17:46.876Z,24.05
2018-07-30T17:20:16.114Z,24.34
2018-07-30T17:22:45.437Z,24.65
2018-07-30T17:25:14.711Z,24.65
2018-07-30T17:27:44.049Z,24.29
2018-07-30T17:30:13.753Z,24.36
2018-07-30T17:32:42.980Z,24.83
2018-07-30T17:35:12.206Z,24.43
2018-07-30T17:37:41.446Z,24.80
2018-07-30T17:40:11.151Z,24.83
2018-07-30T17:42:40.741Z,24.70
2018-07-30T17:45:13.071Z,24.95
2018-07-30T17:47:43.160Z,25.53
2018-07-30T17:50:12.419Z,24.84
2018-07-30T17:52:42.096Z,25.64
2018-07-30T17:55:11.358Z,25.61
2018-07-30T17:57:41.714Z,25.42
2018-07-30T18:00:11.923Z,25.42
2018-07-30T18:02:41.543Z,25.99
2018-07-30T18:05:10.860Z,25.43
2018-07-30T18:07:40.556Z,25.38
2018-07-30T18:10:10.597Z,25.64
2018-07-30T18:12:40.262Z,25.93
2018-07-30T18:15:10.400Z,26.75
2018-07-30T18:17:39.732Z,26.42
2018-07-30T18:20:09.419Z,26.98
2018-07-30T18:22:38.730Z,27.63
2018-07-30T18:25:08.414Z,28.28
2018-07-30T18:27:38.187Z,28.82
2018-07-30T18:30:07.778Z,29.25
2018-07-30T18:32:37.355Z,29.88
2018-07-30T18:35:06.628Z,30.24
2018-07-30T18:37:36.279Z,30.62
2018-07-30T18:40:06.538Z,31.55
2018-07-30T18:42:35.787Z,31.87
2018-07-30T18:45:07.162Z,33.38
2018-07-30T18:47:36.425Z,33.66
2018-07-30T18:50:06.152Z,34.33
2018-07-30T18:52:35.924Z,34.28
2018-07-30T18:55:05.752Z,34.12
2018-07-30T18:57:35.584Z,35.59
2018-07-30T19:00:05.469Z,35.59
2018-07-30T19:02:35.100Z,32.54
2018-07-30T19:05:04.650Z,32.38
2018-07-30T19:07:33.903Z,32.16
2018-07-30T19:10:03.763Z,31.98
2018-07-30T19:12:32.978Z,32.69
2018-07-30T19:17:59.984Z,33.44
2018-07-30T19:20:29.977Z,33.19
2018-07-30T19:22:59.506Z,33.62
2018-07-30T19:25:29.112Z,33.97
2018-07-30T19:27:58.731Z,33.81
2018-07-30T19:30:28.396Z,33.97
2018-07-30T19:32:57.688Z,34.47
2018-07-30T19:35:26.967Z,34.84
2018-07-30T19:37:56.187Z,35.08
2018-07-30T19:40:25.406Z,35.29
2018-07-30T19:42:55.068Z,35.22
2018-07-30T19:45:24.856Z,35.33
2018-07-30T19:47:53.903Z,35.12
2018-07-30T19:50:23.138Z,35.20
2018-07-30T19:52:52.692Z,35.74
2018-07-30T19:55:21.950Z,35.33
2018-07-30T19:57:51.532Z,35.72
2018-07-30T20:00:20.501Z,35.33
2018-07-30T20:02:49.818Z,35.20
2018-07-30T20:05:19.083Z,35.79
2018-07-30T20:07:48.339Z,35.23
2018-07-30T20:10:17.586Z,35.76
2018-07-30T20:12:46.810Z,35.24
2018-07-30T20:15:16.467Z,35.70
2018-07-30T20:17:46.149Z,35.20
2018-07-30T20:20:16.946Z,35.24
2018-07-30T20:22:46.382Z,35.52
2018-07-30T20:25:15.631Z,35.19
2018-07-30T20:27:44.877Z,35.15
2018-07-30T20:30:14.098Z,35.57
2018-07-30T20:32:43.450Z,35.19
2018-07-30T20:35:12.723Z,35.21
2018-07-30T20:37:42.532Z,35.06
2018-07-30T20:40:11.882Z,35.56
2018-07-30T20:42:41.611Z,35.46
2018-07-30T20:45:11.002Z,35.38
2018-07-30T20:47:40.264Z,35.53
2018-07-30T20:50:09.481Z,35.65
2018-07-30T20:52:38.735Z,35.40
2018-07-30T20:55:08.366Z,35.39
2018-07-30T20:57:37.626Z,35.21
2018-07-30T21:00:06.927Z,35.04
2018-07-30T21:02:36.370Z,35.83
2018-07-30T21:05:05.827Z,35.74
2018-07-30T21:07:35.034Z,35.21
2018-07-30T21:10:05.072Z,35.13
2018-07-30T21:12:34.627Z,35.71
2018-07-30T21:15:04.343Z,35.32
2018-07-30T21:17:34.435Z,35.67
2018-07-30T21:20:03.919Z,35.67
2018-07-30T21:22:33.718Z,35.87
2018-07-30T21:25:02.989Z,35.74
2018-07-30T21:27:32.570Z,35.67
2018-07-30T21:30:02.304Z,35.26
2018-07-30T21:32:31.527Z,35.58
2018-07-30T21:35:01.215Z,35.29
2018-07-30T21:37:30.707Z,35.90
2018-07-30T21:40:00.295Z,35.88
2018-07-30T21:42:29.563Z,35.87
2018-07-30T21:44:59.706Z,35.76
2018-07-30T21:47:28.956Z,35.46
2018-07-30T21:49:58.559Z,35.55
2018-07-30T21:52:28.107Z,35.73
2018-07-30T21:54:57.419Z,35.96
2018-07-30T21:57:27.273Z,35.93
2018-07-30T21:59:56.528Z,36.19
2018-07-30T22:02:25.994Z,36.09
2018-07-30T22:04:56.075Z,36.02
2018-07-30T22:07:25.614Z,36.18
2018-07-30T22:09:55.200Z,36.65
2018-07-30T22:12:24.699Z,36.18
2018-07-30T22:14:53.947Z,36.22
2018-07-30T22:17:23.983Z,36.90
2018-07-30T22:19:53.201Z,36.73
2018-07-30T22:22:22.421Z,36.77
2018-07-30T22:24:51.688Z,36.77
2018-07-30T22:27:21.019Z,36.47
2018-07-30T22:29:50.664Z,36.64
2018-07-30T22:32:20.868Z,36.77
2018-07-30T22:34:50.233Z,36.93
2018-07-30T22:37:20.258Z,36.75
2018-07-30T22:39:52.409Z,37.49
2018-07-30T22:42:21.792Z,36.81
2018-07-30T22:44:51.061Z,37.16
2018-07-30T22:47:20.507Z,36.98
2018-07-30T22:49:49.770Z,36.95
2018-07-30T22:52:22.561Z,37.59
2018-07-30T22:54:51.819Z,37.47
2018-07-30T22:57:21.663Z,37.58
2018-07-30T22:59:50.938Z,37.36
2018-07-30T23:02:20.220Z,37.69
2018-07-30T23:04:49.499Z,37.42
2018-07-30T23:07:19.227Z,37.65
2018-07-30T23:09:48.497Z,37.27
2018-07-30T23:12:19.206Z,37.35
2018-07-30T23:14:48.858Z,37.43
2018-07-30T23:17:18.071Z,37.42
2018-07-30T23:19:47.730Z,37.49
2018-07-30T23:22:17.572Z,37.76
2018-07-30T23:24:49.770Z,37.79
2018-07-30T23:27:20.048Z,38.10
2018-07-30T23:29:49.339Z,38.11
2018-07-30T23:32:18.568Z,37.71
2018-07-30T23:34:47.837Z,37.93
2018-07-30T23:37:17.214Z,38.24
2018-07-30T23:39:46.742Z,38.39
2018-07-30T23:42:16.679Z,38.05
2018-07-30T23:44:46.671Z,38.47
2018-07-30T23:47:15.967Z,38.19
2018-07-30T23:49:45.190Z,38.56
2018-07-30T23:52:14.402Z,38.55
2018-07-30T23:54:44.033Z,38.15
2018-07-30T23:57:13.418Z,38.69
2018-07-30T23:59:43.041Z,38.30
